createdAt,value
2022-12-16T00:00:49.180Z,0.00
2022-12-16T00:01:53.365Z,0.50
2022-12-16T00:02:58.654Z,0.25
2022-12-16T00:04:02.978Z,0.00
2022-12-16T00:05:07.072Z,0.00
2022-12-16T00:07:29.963Z,0.00
2022-12-16T00:08:34.746Z,0.50
2022-12-16T00:09:39.168Z,0.50
2022-12-16T00:10:43.482Z,0.25
2022-12-16T00:11:48.317Z,0.50
2022-12-16T00:12:53.416Z,1.25
2022-12-16T00:13:59.063Z,0.50
2022-12-16T00:15:03.767Z,1.00
2022-12-16T00:16:08.439Z,2.00
2022-12-16T00:17:12.997Z,2.00
2022-12-16T00:18:17.510Z,0.50
2022-12-16T00:19:21.920Z,0.50
2022-12-16T00:20:26.227Z,1.00
2022-12-16T00:21:30.538Z,1.00
2022-12-16T00:22:35.565Z,1.50
2022-12-16T00:23:41.103Z,0.50
2022-12-16T00:24:45.309Z,0.25
2022-12-16T00:25:49.624Z,0.50
2022-12-16T00:26:54.950Z,0.25
2022-12-16T00:28:00.455Z,1.00
2022-12-16T00:29:08.034Z,0.50
2022-12-16T00:30:12.801Z,0.00
2022-12-16T00:31:17.352Z,0.00
2022-12-16T00:32:21.406Z,0.75
2022-12-16T00:33:25.608Z,2.00
2022-12-16T00:34:30.535Z,1.50
2022-12-16T00:35:34.634Z,1.00
2022-12-16T00:36:38.851Z,1.75
2022-12-16T00:37:43.365Z,1.25
2022-12-16T00:38:48.074Z,1.00
2022-12-16T00:39:53.093Z,3.00
2022-12-16T00:40:58.430Z,1.50
2022-12-16T00:42:02.862Z,1.00
2022-12-16T00:43:07.453Z,1.00
2022-12-16T00:44:11.866Z,1.00
2022-12-16T00:45:16.180Z,0.50
2022-12-16T00:46:20.344Z,0.50
2022-12-16T00:47:24.386Z,1.00
2022-12-16T00:48:29.201Z,1.00
2022-12-16T00:49:33.830Z,1.25
2022-12-16T00:50:38.041Z,1.00
2022-12-16T00:51:42.652Z,1.00
2022-12-16T00:52:47.164Z,0.50
2022-12-16T00:53:51.694Z,0.50
2022-12-16T00:54:56.181Z,0.75
2022-12-16T00:56:00.994Z,1.00
2022-12-16T00:57:05.517Z,0.50
2022-12-16T00:58:09.922Z,0.25
2022-12-16T00:59:14.127Z,2.50
2022-12-16T01:00:18.549Z,3.00
2022-12-16T01:01:22.972Z,1.25
2022-12-16T01:02:27.402Z,1.00
2022-12-16T01:03:31.910Z,1.00
2022-12-16T01:04:36.078Z,1.00
2022-12-16T01:05:40.504Z,0.00
2022-12-16T01:06:45.020Z,0.50
2022-12-16T01:07:49.512Z,1.50
2022-12-16T01:08:55.081Z,1.50
2022-12-16T01:09:59.573Z,0.75
2022-12-16T01:11:04.079Z,0.50
2022-12-16T01:12:08.938Z,2.00
2022-12-16T01:13:13.321Z,1.00
2022-12-16T01:14:17.718Z,1.00
2022-12-16T01:15:22.136Z,1.50
2022-12-16T01:16:26.293Z,0.00
2022-12-16T01:17:30.650Z,0.00
2022-12-16T01:18:34.946Z,0.00
2022-12-16T01:19:39.063Z,0.50
2022-12-16T01:20:43.158Z,0.50
2022-12-16T01:21:47.775Z,1.50
2022-12-16T01:22:52.082Z,0.50
2022-12-16T01:23:56.390Z,1.00
2022-12-16T01:25:00.599Z,1.00
2022-12-16T01:26:05.112Z,1.50
2022-12-16T01:27:09.431Z,1.50
2022-12-16T01:28:13.727Z,1.00
2022-12-16T01:29:18.252Z,1.00
2022-12-16T01:30:22.673Z,0.00
2022-12-16T01:31:26.947Z,1.00
2022-12-16T01:32:31.267Z,0.75
2022-12-16T01:33:35.861Z,0.25
2022-12-16T01:34:40.813Z,1.00
2022-12-16T01:35:55.985Z,3.00
2022-12-16T01:36:50.156Z,2.25
2022-12-16T01:37:54.559Z,1.75
2022-12-16T01:38:59.064Z,1.50
2022-12-16T01:40:03.473Z,0.50
2022-12-16T01:41:07.674Z,1.00
2022-12-16T01:42:12.812Z,0.50
2022-12-16T01:43:17.329Z,0.50
2022-12-16T01:44:21.950Z,1.00
2022-12-16T01:45:26.675Z,1.00
2022-12-16T01:46:30.656Z,0.75
2022-12-16T01:47:34.976Z,0.50
2022-12-16T01:48:39.175Z,0.00
2022-12-16T01:49:43.377Z,0.75
2022-12-16T01:50:47.445Z,1.25
2022-12-16T01:51:55.183Z,1.50
2022-12-16T01:52:57.831Z,0.00
2022-12-16T01:54:02.147Z,0.00
2022-12-16T01:55:06.767Z,0.50
2022-12-16T01:56:11.893Z,1.00
2022-12-16T01:57:16.109Z,1.00
2022-12-16T01:58:20.770Z,0.75
2022-12-16T01:59:25.527Z,1.50
2022-12-16T02:00:30.053Z,1.00
2022-12-16T02:01:34.552Z,0.00
2022-12-16T02:02:39.025Z,0.50
2022-12-16T02:03:43.143Z,1.25
2022-12-16T02:04:48.102Z,0.75
2022-12-16T02:05:52.817Z,1.50
2022-12-16T02:06:57.643Z,1.00
2022-12-16T02:08:02.366Z,1.50
2022-12-16T02:09:07.172Z,1.50
2022-12-16T02:10:12.824Z,2.00
2022-12-16T02:11:17.013Z,3.00
2022-12-16T02:12:21.488Z,3.00
2022-12-16T02:13:25.736Z,0.50
2022-12-16T02:14:30.152Z,1.00
2022-12-16T02:15:35.075Z,1.50
2022-12-16T02:16:39.785Z,1.25
2022-12-16T02:17:44.117Z,0.50
2022-12-16T02:18:48.716Z,1.00
2022-12-16T02:19:53.429Z,0.50
2022-12-16T02:20:58.460Z,1.25
2022-12-16T02:22:03.586Z,1.75
2022-12-16T02:23:08.710Z,2.00
2022-12-16T02:24:25.407Z,2.00
2022-12-16T02:25:29.197Z,0.50
2022-12-16T02:26:34.025Z,2.00
2022-12-16T02:27:38.163Z,1.00
2022-12-16T02:28:42.343Z,0.50
2022-12-16T02:29:46.948Z,0.50
2022-12-16T02:30:51.615Z,1.00
2022-12-16T02:31:56.390Z,1.50
2022-12-16T02:33:00.481Z,2.00
2022-12-16T02:34:04.794Z,1.50
2022-12-16T02:35:08.902Z,1.00
2022-12-16T02:36:13.936Z,1.00
2022-12-16T02:37:18.132Z,2.50
2022-12-16T02:38:22.388Z,1.00
2022-12-16T02:39:27.052Z,0.50
2022-12-16T02:40:32.184Z,1.50
2022-12-16T02:41:36.793Z,1.50
2022-12-16T02:42:41.832Z,1.00
2022-12-16T02:43:49.214Z,0.00
2022-12-16T02:44:53.516Z,0.50
2022-12-16T02:45:58.062Z,1.50
2022-12-16T02:47:02.647Z,0.50
2022-12-16T02:48:07.179Z,1.00
2022-12-16T02:49:11.584Z,0.50
2022-12-16T02:50:16.389Z,2.00
2022-12-16T02:51:21.105Z,2.00
2022-12-16T02:52:25.474Z,0.50
2022-12-16T02:53:29.817Z,1.75
2022-12-16T02:54:34.354Z,2.50
2022-12-16T02:55:38.752Z,1.50
2022-12-16T02:56:43.561Z,2.00
2022-12-16T02:57:47.954Z,1.75
2022-12-16T02:58:52.107Z,1.00
2022-12-16T02:59:56.499Z,0.75
2022-12-16T03:01:05.602Z,1.00
2022-12-16T03:02:10.843Z,1.00
2022-12-16T03:03:15.303Z,1.00
2022-12-16T03:04:19.567Z,1.50
2022-12-16T03:05:24.394Z,1.75
2022-12-16T03:06:28.688Z,1.00
2022-12-16T03:07:33.301Z,0.00
2022-12-16T03:08:38.119Z,0.00
2022-12-16T03:09:43.253Z,0.00
2022-12-16T03:10:47.474Z,0.50
2022-12-16T03:11:52.584Z,1.00
2022-12-16T03:12:58.634Z,1.50
2022-12-16T03:14:02.956Z,1.25
2022-12-16T03:15:07.068Z,1.75
2022-12-16T03:16:11.689Z,2.00
2022-12-16T03:17:16.085Z,1.00
2022-12-16T03:18:20.493Z,1.75
2022-12-16T03:19:24.684Z,1.50
2022-12-16T03:20:29.203Z,0.00
2022-12-16T03:21:33.930Z,1.00
2022-12-16T03:22:38.771Z,2.00
2022-12-16T03:23:43.875Z,1.00
2022-12-16T03:24:48.178Z,0.50
2022-12-16T03:25:52.396Z,1.50
2022-12-16T03:26:56.686Z,3.75
2022-12-16T03:28:01.201Z,2.50
2022-12-16T03:29:05.511Z,0.75
2022-12-16T03:30:09.917Z,1.00
2022-12-16T03:31:14.291Z,0.50
2022-12-16T03:32:18.344Z,1.25
2022-12-16T03:33:22.753Z,0.50
2022-12-16T03:34:27.369Z,1.50
2022-12-16T03:35:32.074Z,0.75
2022-12-16T03:36:36.591Z,1.50
2022-12-16T03:37:41.304Z,1.50
2022-12-16T03:38:47.261Z,1.00
2022-12-16T03:39:51.968Z,1.50
2022-12-16T03:40:56.396Z,2.00
2022-12-16T03:42:00.685Z,1.00
2022-12-16T03:43:05.512Z,2.00
2022-12-16T03:44:10.223Z,1.75
2022-12-16T03:45:15.047Z,1.00
2022-12-16T03:46:19.358Z,2.50
2022-12-16T03:47:24.033Z,2.00
2022-12-16T03:48:28.590Z,0.50
2022-12-16T03:49:32.895Z,1.00
2022-12-16T03:50:37.304Z,1.00
2022-12-16T03:51:41.825Z,1.00
2022-12-16T03:52:46.534Z,2.00
2022-12-16T03:53:50.653Z,2.00
2022-12-16T03:54:55.275Z,0.50
2022-12-16T03:55:59.989Z,1.00
2022-12-16T03:57:04.484Z,0.00
2022-12-16T03:58:08.924Z,0.50
2022-12-16T03:59:12.995Z,1.00
2022-12-16T04:00:17.529Z,1.75
2022-12-16T04:01:22.321Z,1.00
2022-12-16T04:02:26.992Z,1.50
2022-12-16T04:03:31.740Z,1.25
2022-12-16T04:04:36.412Z,2.00
2022-12-16T04:05:41.415Z,1.00
2022-12-16T04:06:45.723Z,1.00
2022-12-16T04:07:50.135Z,1.00
2022-12-16T04:08:54.655Z,0.50
2022-12-16T04:10:00.488Z,0.50
2022-12-16T04:11:05.506Z,1.25
2022-12-16T04:12:10.548Z,0.50
2022-12-16T04:13:14.940Z,0.75
2022-12-16T04:14:19.365Z,0.50
2022-12-16T04:15:23.767Z,1.00
2022-12-16T04:16:28.451Z,0.50
2022-12-16T04:17:33.109Z,0.50
2022-12-16T04:18:37.930Z,0.50
2022-12-16T04:19:42.031Z,1.50
2022-12-16T04:20:46.132Z,2.00
2022-12-16T04:21:51.264Z,1.50
2022-12-16T04:22:56.914Z,1.00
2022-12-16T04:24:01.210Z,0.00
2022-12-16T04:25:05.519Z,0.75
2022-12-16T04:26:10.331Z,1.00
2022-12-16T04:27:15.811Z,1.50
2022-12-16T04:28:19.968Z,1.50
2022-12-16T04:29:24.068Z,0.00
2022-12-16T04:30:28.089Z,0.00
2022-12-16T04:31:32.466Z,0.50
2022-12-16T04:32:37.004Z,0.00
2022-12-16T04:33:41.221Z,0.50
2022-12-16T04:34:45.327Z,0.50
2022-12-16T04:35:49.515Z,0.50
2022-12-16T04:36:53.613Z,0.50
2022-12-16T04:37:59.068Z,1.50
2022-12-16T04:39:03.376Z,1.50
2022-12-16T04:40:07.987Z,0.50
2022-12-16T04:41:12.590Z,1.75
2022-12-16T04:42:17.112Z,1.50
2022-12-16T04:43:21.925Z,0.00
2022-12-16T04:44:26.244Z,1.00
2022-12-16T04:45:30.986Z,1.00
2022-12-16T04:46:36.113Z,1.00
2022-12-16T04:47:40.704Z,1.50
2022-12-16T04:48:44.836Z,1.25
2022-12-16T04:49:50.033Z,1.00
2022-12-16T04:50:55.589Z,0.50
2022-12-16T04:52:00.104Z,1.00
2022-12-16T04:53:04.156Z,1.00
2022-12-16T04:54:08.801Z,2.00
2022-12-16T04:55:13.236Z,1.00
2022-12-16T04:56:17.616Z,0.50
2022-12-16T04:57:21.921Z,0.00
2022-12-16T04:58:26.233Z,1.00
2022-12-16T04:59:31.270Z,0.75
2022-12-16T05:00:36.594Z,0.50
2022-12-16T05:01:40.909Z,1.50
2022-12-16T05:02:45.489Z,2.25
2022-12-16T05:03:50.148Z,0.75
2022-12-16T05:04:54.345Z,1.50
2022-12-16T05:05:59.271Z,2.00
2022-12-16T05:07:03.779Z,1.00
2022-12-16T05:08:08.598Z,0.50
2022-12-16T05:09:12.811Z,0.50
2022-12-16T05:10:17.014Z,1.25
2022-12-16T05:11:21.314Z,1.00
2022-12-16T05:12:25.522Z,1.50
2022-12-16T05:13:30.145Z,1.50
2022-12-16T05:14:34.539Z,1.00
2022-12-16T05:15:38.781Z,0.50
2022-12-16T05:16:43.173Z,1.00
2022-12-16T05:17:47.794Z,0.50
2022-12-16T05:18:52.494Z,1.00
2022-12-16T05:19:56.900Z,0.50
2022-12-16T05:21:01.329Z,0.50
2022-12-16T05:22:06.152Z,1.00
2022-12-16T05:23:10.765Z,1.50
2022-12-16T05:24:15.060Z,0.75
2022-12-16T05:25:19.469Z,0.00
2022-12-16T05:26:23.671Z,0.50
2022-12-16T05:27:28.086Z,0.50
2022-12-16T05:28:32.730Z,0.50
2022-12-16T05:29:37.425Z,0.00
2022-12-16T05:30:41.744Z,0.50
2022-12-16T05:31:46.228Z,1.00
2022-12-16T05:32:50.650Z,0.50
2022-12-16T05:33:55.071Z,0.25
2022-12-16T05:34:59.269Z,1.25
2022-12-16T05:36:03.989Z,1.00
2022-12-16T05:37:08.397Z,0.75
2022-12-16T05:38:13.005Z,0.50
2022-12-16T05:39:17.724Z,1.00
2022-12-16T05:40:22.355Z,1.00
2022-12-16T05:41:26.863Z,1.50
2022-12-16T05:42:31.275Z,1.50
2022-12-16T05:43:36.037Z,2.00
2022-12-16T05:44:40.916Z,1.50
2022-12-16T05:45:45.551Z,0.50
2022-12-16T05:46:50.134Z,1.50
2022-12-16T05:47:54.964Z,3.00
2022-12-16T05:48:59.470Z,2.25
2022-12-16T05:50:03.992Z,2.00
2022-12-16T05:51:07.993Z,1.50
2022-12-16T05:52:12.304Z,1.50
2022-12-16T05:53:16.914Z,1.00
2022-12-16T05:54:21.534Z,0.75
2022-12-16T05:55:27.914Z,1.00
2022-12-16T05:56:30.974Z,0.50
2022-12-16T05:57:35.794Z,0.75
2022-12-16T05:58:40.310Z,1.75
2022-12-16T05:59:44.828Z,1.75
2022-12-16T06:00:49.528Z,1.75
2022-12-16T06:01:54.128Z,2.00
2022-12-16T06:03:01.154Z,1.00
2022-12-16T06:04:05.974Z,0.75
2022-12-16T06:05:10.566Z,1.00
2022-12-16T06:06:15.289Z,0.50
2022-12-16T06:07:19.688Z,1.00
2022-12-16T06:08:23.987Z,0.50
2022-12-16T06:09:28.603Z,2.00
2022-12-16T06:10:33.126Z,1.50
2022-12-16T06:11:37.532Z,1.50
2022-12-16T06:12:41.943Z,1.25
2022-12-16T06:13:46.445Z,1.00
2022-12-16T06:14:50.870Z,0.50
2022-12-16T06:15:55.254Z,1.50
2022-12-16T06:16:59.681Z,0.50
2022-12-16T06:18:03.894Z,1.75
2022-12-16T06:19:08.090Z,2.50
2022-12-16T06:20:12.719Z,2.50
2022-12-16T06:21:17.036Z,2.75
2022-12-16T06:22:21.332Z,2.00
2022-12-16T06:23:25.845Z,2.00
2022-12-16T06:24:30.345Z,2.00
2022-12-16T06:25:34.982Z,1.50
2022-12-16T06:26:39.376Z,1.00
2022-12-16T06:27:43.582Z,0.50
2022-12-16T06:28:48.227Z,2.00
2022-12-16T06:29:52.710Z,2.50
2022-12-16T06:30:57.628Z,1.50
2022-12-16T06:32:01.729Z,2.25
2022-12-16T06:33:05.945Z,2.50
2022-12-16T06:34:10.353Z,1.75
2022-12-16T06:35:14.870Z,1.50
2022-12-16T06:36:19.384Z,1.75
2022-12-16T06:37:23.895Z,1.50
2022-12-16T06:38:28.200Z,1.00
2022-12-16T06:39:32.615Z,2.25
2022-12-16T06:40:37.147Z,1.50
2022-12-16T06:41:41.743Z,1.75
2022-12-16T06:42:46.560Z,2.25
2022-12-16T06:43:51.070Z,2.50
2022-12-16T06:44:55.785Z,1.00
2022-12-16T06:46:00.179Z,1.00
2022-12-16T06:47:04.555Z,2.50
2022-12-16T06:48:08.929Z,2.50
2022-12-16T06:49:13.328Z,2.75
2022-12-16T06:50:17.809Z,2.50
2022-12-16T06:51:22.261Z,0.75
2022-12-16T06:52:26.490Z,0.00
2022-12-16T06:53:31.306Z,2.25
2022-12-16T06:54:36.614Z,4.25
2022-12-16T06:55:40.925Z,4.00
2022-12-16T06:56:45.531Z,3.00
2022-12-16T06:57:50.053Z,2.00
2022-12-16T06:58:54.976Z,4.00
2022-12-16T06:59:59.384Z,3.00
2022-12-16T07:01:03.949Z,2.00
2022-12-16T07:02:08.832Z,2.50
2022-12-16T07:03:13.090Z,2.25
2022-12-16T07:04:17.641Z,1.50
2022-12-16T07:05:21.913Z,1.00
2022-12-16T07:06:26.771Z,2.25
2022-12-16T07:07:31.278Z,2.25
2022-12-16T07:08:36.014Z,1.50
2022-12-16T07:09:40.830Z,1.00
2022-12-16T07:10:45.244Z,2.00
2022-12-16T07:11:49.548Z,1.00
2022-12-16T07:12:53.851Z,1.50
2022-12-16T07:13:58.353Z,1.00
2022-12-16T07:15:02.359Z,0.00
2022-12-16T07:16:06.752Z,2.00
2022-12-16T07:17:16.752Z,2.50
2022-12-16T07:18:16.718Z,0.75
2022-12-16T07:19:20.940Z,1.50
2022-12-16T07:20:25.439Z,1.00
2022-12-16T07:21:29.264Z,1.00
2022-12-16T07:22:33.649Z,3.00
2022-12-16T07:23:37.646Z,1.00
2022-12-16T07:24:42.158Z,1.00
2022-12-16T07:25:46.463Z,3.00
2022-12-16T07:26:50.879Z,3.50
2022-12-16T07:27:55.364Z,2.25
2022-12-16T07:29:00.031Z,3.00
2022-12-16T07:30:04.411Z,3.50
2022-12-16T07:31:09.026Z,2.50
2022-12-16T07:32:13.907Z,2.75
2022-12-16T07:33:18.368Z,3.25
2022-12-16T07:34:22.990Z,3.00
2022-12-16T07:35:27.511Z,1.00
2022-12-16T07:36:32.412Z,0.75
2022-12-16T07:37:36.924Z,3.50
2022-12-16T07:38:41.851Z,2.75
2022-12-16T07:39:51.352Z,1.75
2022-12-16T07:40:51.914Z,1.50
2022-12-16T07:41:56.119Z,1.25
2022-12-16T07:43:00.638Z,2.00
2022-12-16T07:44:05.649Z,2.00
2022-12-16T07:45:10.370Z,3.00
2022-12-16T07:46:14.830Z,1.50
2022-12-16T07:47:19.487Z,2.50
2022-12-16T07:48:24.736Z,3.50
2022-12-16T07:49:29.145Z,2.75
2022-12-16T07:50:33.448Z,2.75
2022-12-16T07:51:37.964Z,1.00
2022-12-16T07:52:42.057Z,3.00
2022-12-16T07:53:46.160Z,2.75
2022-12-16T07:54:50.811Z,2.00
2022-12-16T07:55:54.990Z,2.25
2022-12-16T07:56:59.703Z,2.50
2022-12-16T07:58:04.213Z,2.75
2022-12-16T07:59:08.428Z,2.50
2022-12-16T08:00:12.741Z,1.00
2022-12-16T08:01:17.074Z,2.25
2022-12-16T08:02:21.579Z,4.25
2022-12-16T08:03:26.680Z,3.50
2022-12-16T08:04:31.291Z,2.00
2022-12-16T08:05:35.596Z,4.25
2022-12-16T08:06:40.581Z,3.50
2022-12-16T08:07:46.574Z,2.00
2022-12-16T08:08:50.707Z,2.50
2022-12-16T08:09:54.776Z,5.75
2022-12-16T08:10:58.785Z,4.75
2022-12-16T08:12:03.297Z,3.00
2022-12-16T08:13:07.397Z,3.00
2022-12-16T08:14:11.703Z,2.00
2022-12-16T08:15:16.116Z,1.75
2022-12-16T08:16:20.393Z,2.00
2022-12-16T08:17:24.932Z,3.00
2022-12-16T08:18:28.972Z,2.50
2022-12-16T08:19:33.048Z,1.75
2022-12-16T08:20:37.256Z,2.75
2022-12-16T08:21:41.354Z,7.25
2022-12-16T08:22:45.552Z,5.50
2022-12-16T08:23:51.420Z,5.50
2022-12-16T08:24:56.530Z,5.00
2022-12-16T08:26:01.059Z,3.50
2022-12-16T08:27:05.079Z,1.75
2022-12-16T08:28:09.348Z,5.25
2022-12-16T08:29:42.486Z,4.50
2022-12-16T08:30:19.299Z,2.50
2022-12-16T08:31:25.236Z,2.00
2022-12-16T08:32:29.755Z,2.75
2022-12-16T08:33:34.432Z,1.50
2022-12-16T08:34:38.985Z,3.25
2022-12-16T08:35:43.394Z,3.50
2022-12-16T08:36:47.601Z,3.25
2022-12-16T08:37:51.728Z,4.50
2022-12-16T08:38:56.235Z,3.50
2022-12-16T08:40:33.097Z,2.25
2022-12-16T08:41:05.245Z,4.00
2022-12-16T08:42:09.764Z,3.50
2022-12-16T08:43:14.069Z,3.00
2022-12-16T08:44:18.171Z,4.00
2022-12-16T08:45:22.380Z,3.50
2022-12-16T08:46:26.392Z,2.00
2022-12-16T08:47:30.703Z,2.00
2022-12-16T08:48:34.593Z,1.75
2022-12-16T08:49:39.738Z,2.50
2022-12-16T08:50:44.128Z,2.00
2022-12-16T08:51:48.659Z,3.50
2022-12-16T08:52:53.043Z,3.00
2022-12-16T08:53:57.590Z,3.00
2022-12-16T08:55:02.075Z,2.25
2022-12-16T08:56:06.482Z,2.50
2022-12-16T08:57:11.824Z,2.25
2022-12-16T08:58:16.021Z,2.50
2022-12-16T08:59:20.639Z,4.50
2022-12-16T09:00:25.761Z,5.25
2022-12-16T09:01:30.525Z,7.00
2022-12-16T09:02:35.076Z,6.00
2022-12-16T09:03:39.631Z,3.00
2022-12-16T09:04:44.328Z,4.50
2022-12-16T09:05:48.740Z,5.00
2022-12-16T09:06:53.392Z,4.25
2022-12-16T09:07:57.765Z,4.00
2022-12-16T09:09:02.178Z,3.75
2022-12-16T09:10:06.797Z,2.50
2022-12-16T09:11:11.199Z,3.75
2022-12-16T09:12:15.717Z,3.00
2022-12-16T09:13:20.237Z,3.50
2022-12-16T09:14:24.540Z,5.75
2022-12-16T09:15:28.897Z,3.50
2022-12-16T09:16:33.530Z,3.00
2022-12-16T09:17:37.671Z,3.50
2022-12-16T09:18:41.773Z,3.00
2022-12-16T09:19:45.976Z,4.00
2022-12-16T09:20:49.766Z,3.50
2022-12-16T09:21:54.840Z,3.00
2022-12-16T09:22:59.214Z,4.00
2022-12-16T09:24:03.416Z,3.50
2022-12-16T09:25:07.720Z,4.00
2022-12-16T09:26:12.732Z,3.50
2022-12-16T09:27:16.647Z,2.25
2022-12-16T09:28:21.265Z,3.50
2022-12-16T09:29:25.256Z,5.00
2022-12-16T09:30:29.368Z,5.00
2022-12-16T09:31:33.853Z,3.75
2022-12-16T09:32:38.390Z,3.00
2022-12-16T09:33:42.508Z,2.50
2022-12-16T09:34:46.697Z,2.50
2022-12-16T09:35:50.825Z,4.50
2022-12-16T09:36:55.110Z,6.25
2022-12-16T09:38:00.030Z,3.50
2022-12-16T09:39:04.678Z,4.00
2022-12-16T09:40:08.658Z,4.75
2022-12-16T09:41:13.269Z,5.00
2022-12-16T09:42:17.478Z,4.50
2022-12-16T09:43:21.689Z,4.00
2022-12-16T09:44:25.988Z,4.50
2022-12-16T09:45:30.609Z,6.00
2022-12-16T09:46:35.644Z,5.50
2022-12-16T09:47:40.156Z,4.00
2022-12-16T09:48:45.201Z,5.00
2022-12-16T09:49:49.481Z,4.50
2022-12-16T09:50:53.981Z,3.75
2022-12-16T09:51:59.434Z,4.50
2022-12-16T09:53:03.929Z,4.50
2022-12-16T09:54:08.101Z,5.25
2022-12-16T09:55:13.695Z,5.50
2022-12-16T09:56:18.038Z,5.00
2022-12-16T09:57:22.413Z,5.50
2022-12-16T09:58:26.706Z,4.50
2022-12-16T09:59:31.217Z,3.25
2022-12-16T10:00:35.629Z,4.50
2022-12-16T10:01:40.795Z,4.00
2022-12-16T10:02:45.555Z,3.50
2022-12-16T10:03:50.240Z,3.50
2022-12-16T10:04:55.628Z,4.50
2022-12-16T10:06:00.047Z,5.00
2022-12-16T10:07:04.545Z,3.00
2022-12-16T10:08:08.964Z,4.00
2022-12-16T10:09:13.060Z,4.00
2022-12-16T10:10:17.370Z,3.00
2022-12-16T10:11:21.469Z,2.50
2022-12-16T10:12:25.695Z,2.50
2022-12-16T10:13:29.759Z,4.00
2022-12-16T10:14:34.905Z,6.00
2022-12-16T10:15:39.298Z,5.50
2022-12-16T10:16:43.626Z,4.00
2022-12-16T10:17:48.048Z,5.50
2022-12-16T10:18:52.231Z,4.25
2022-12-16T10:19:56.567Z,4.00
2022-12-16T10:21:00.657Z,4.00
2022-12-16T10:22:04.766Z,4.50
2022-12-16T10:23:08.863Z,4.00
2022-12-16T10:24:13.275Z,4.00
2022-12-16T10:25:21.705Z,4.75
2022-12-16T10:26:22.298Z,3.00
2022-12-16T10:27:26.511Z,3.50
2022-12-16T10:28:30.713Z,5.25
2022-12-16T10:29:35.028Z,3.50
2022-12-16T10:30:38.960Z,2.50
2022-12-16T10:31:43.070Z,3.00
2022-12-16T10:32:47.036Z,3.75
2022-12-16T10:33:51.255Z,3.50
2022-12-16T10:34:55.328Z,5.00
2022-12-16T10:35:59.846Z,4.25
2022-12-16T10:37:08.894Z,3.50
2022-12-16T10:38:09.718Z,1.75
2022-12-16T10:39:14.017Z,3.50
2022-12-16T10:40:18.206Z,2.00
2022-12-16T10:41:22.516Z,1.00
2022-12-16T10:42:26.818Z,2.25
2022-12-16T10:43:31.028Z,2.50
2022-12-16T10:44:35.030Z,3.25
2022-12-16T10:45:39.252Z,2.50
2022-12-16T10:46:43.887Z,4.25
2022-12-16T10:47:48.570Z,3.75
2022-12-16T10:48:57.100Z,4.25
2022-12-16T10:49:58.582Z,4.50
2022-12-16T10:51:02.821Z,2.75
2022-12-16T10:52:08.907Z,4.00
2022-12-16T10:53:12.776Z,3.25
2022-12-16T10:54:17.084Z,3.25
2022-12-16T10:55:21.600Z,5.00
2022-12-16T10:56:25.813Z,5.00
2022-12-16T10:57:29.695Z,3.00
2022-12-16T10:58:35.625Z,5.75
2022-12-16T10:59:38.826Z,8.00
2022-12-16T11:00:43.017Z,4.50
2022-12-16T11:01:47.661Z,5.00
2022-12-16T11:02:51.775Z,6.50
2022-12-16T11:03:56.750Z,3.00
2022-12-16T11:05:01.194Z,3.00
2022-12-16T11:06:05.187Z,3.50
2022-12-16T11:07:09.290Z,3.00
2022-12-16T11:08:14.009Z,4.25
2022-12-16T11:09:18.316Z,5.50
2022-12-16T11:10:23.267Z,4.25
2022-12-16T11:11:27.858Z,1.75
2022-12-16T11:12:32.036Z,1.75
2022-12-16T11:13:36.515Z,2.50
2022-12-16T11:14:50.278Z,3.00
2022-12-16T11:15:46.581Z,1.75
2022-12-16T11:16:51.019Z,3.00
2022-12-16T11:17:56.011Z,4.25
2022-12-16T11:19:00.673Z,3.25
2022-12-16T11:20:04.978Z,4.00
2022-12-16T11:21:13.260Z,2.25
2022-12-16T11:22:14.933Z,3.50
2022-12-16T11:23:19.236Z,5.50
2022-12-16T11:24:24.071Z,4.25
2022-12-16T11:25:28.262Z,3.75
2022-12-16T11:26:36.827Z,4.75
2022-12-16T11:27:37.616Z,4.00
2022-12-16T11:28:41.800Z,5.00
2022-12-16T11:29:46.211Z,4.00
2022-12-16T11:30:50.250Z,4.00
2022-12-16T11:31:57.959Z,4.50
2022-12-16T11:32:59.663Z,3.50
2022-12-16T11:34:03.553Z,4.50
2022-12-16T11:35:07.662Z,3.50
2022-12-16T11:36:11.755Z,2.50
2022-12-16T11:37:18.176Z,3.00
2022-12-16T11:38:20.957Z,4.00
2022-12-16T11:39:25.089Z,3.00
2022-12-16T11:40:29.197Z,3.25
2022-12-16T11:41:33.302Z,3.75
2022-12-16T11:42:37.302Z,3.50
2022-12-16T11:43:41.806Z,3.75
2022-12-16T11:44:45.917Z,5.00
2022-12-16T11:45:50.016Z,4.50
2022-12-16T11:46:54.091Z,5.50
2022-12-16T11:47:59.147Z,5.50
2022-12-16T11:49:03.560Z,3.25
2022-12-16T11:50:07.567Z,3.00
2022-12-16T11:51:13.400Z,2.50
2022-12-16T11:53:23.154Z,4.75
2022-12-16T11:54:27.787Z,4.25
2022-12-16T11:56:03.564Z,3.00
2022-12-16T11:56:37.479Z,3.75
2022-12-16T11:57:41.507Z,4.75
2022-12-16T11:58:45.709Z,4.50
2022-12-16T11:59:50.223Z,3.00
2022-12-16T12:00:55.255Z,4.00
2022-12-16T12:02:00.502Z,4.00
2022-12-16T12:03:04.636Z,4.50
2022-12-16T12:04:08.970Z,3.75
2022-12-16T12:05:13.215Z,5.25
2022-12-16T12:06:18.034Z,5.00
2022-12-16T12:07:22.532Z,5.50
2022-12-16T12:08:26.745Z,5.50
2022-12-16T12:09:31.158Z,4.00
2022-12-16T12:10:35.556Z,4.50
2022-12-16T12:11:39.969Z,2.00
2022-12-16T12:12:44.174Z,2.00
2022-12-16T12:13:48.288Z,3.50
2022-12-16T12:14:52.284Z,3.00
2022-12-16T12:15:57.365Z,3.50
2022-12-16T12:17:01.574Z,2.00
2022-12-16T12:18:05.956Z,4.00
2022-12-16T12:19:10.434Z,3.25
2022-12-16T12:20:14.852Z,2.50
2022-12-16T12:21:19.360Z,3.50
2022-12-16T12:22:23.772Z,3.50
2022-12-16T12:23:28.191Z,2.50
2022-12-16T12:24:32.291Z,2.75
2022-12-16T12:25:36.806Z,2.50
2022-12-16T12:26:40.905Z,3.50
2022-12-16T12:27:45.001Z,4.00
2022-12-16T12:28:49.205Z,2.50
2022-12-16T12:29:52.969Z,1.50
2022-12-16T12:30:57.004Z,1.75
2022-12-16T12:32:01.045Z,1.00
2022-12-16T12:33:05.010Z,3.00
2022-12-16T12:34:09.110Z,2.50
2022-12-16T12:35:13.225Z,2.00
2022-12-16T12:36:17.436Z,3.50
2022-12-16T12:37:21.331Z,2.50
2022-12-16T12:38:25.365Z,2.50
2022-12-16T12:39:29.532Z,5.50
2022-12-16T12:40:34.147Z,4.00
2022-12-16T12:41:38.349Z,3.00
2022-12-16T12:42:47.187Z,3.00
2022-12-16T12:43:47.588Z,3.00
2022-12-16T12:44:51.686Z,3.00
2022-12-16T12:45:55.797Z,2.50
2022-12-16T12:47:00.141Z,3.00
2022-12-16T12:48:04.228Z,3.00
2022-12-16T12:49:08.220Z,2.25
2022-12-16T12:50:12.310Z,3.00
2022-12-16T12:51:16.510Z,2.00
2022-12-16T12:52:21.050Z,3.00
2022-12-16T12:53:25.323Z,3.00
2022-12-16T12:54:33.253Z,2.00
2022-12-16T12:55:34.973Z,2.50
2022-12-16T12:56:39.113Z,1.50
2022-12-16T12:57:43.293Z,1.50
2022-12-16T12:58:47.994Z,2.50
2022-12-16T12:59:55.920Z,2.50
2022-12-16T13:00:57.483Z,2.00
2022-12-16T13:02:01.762Z,2.00
2022-12-16T13:03:06.257Z,1.50
2022-12-16T13:04:10.772Z,2.50
2022-12-16T13:05:18.488Z,3.50
2022-12-16T13:06:20.915Z,1.50
2022-12-16T13:07:24.920Z,2.50
2022-12-16T13:08:29.225Z,4.25
2022-12-16T13:09:33.659Z,2.00
2022-12-16T13:10:37.962Z,2.50
2022-12-16T13:11:42.577Z,1.50
2022-12-16T13:12:46.771Z,3.75
2022-12-16T13:13:51.081Z,4.50
2022-12-16T13:14:55.183Z,3.25
2022-12-16T13:15:59.488Z,2.50
2022-12-16T13:17:03.283Z,1.50
2022-12-16T13:18:07.393Z,2.50
2022-12-16T13:19:11.294Z,3.50
2022-12-16T13:20:15.189Z,2.00
2022-12-16T13:21:19.189Z,1.25
2022-12-16T13:22:23.292Z,3.00
2022-12-16T13:23:27.295Z,2.75
2022-12-16T13:24:31.292Z,2.50
2022-12-16T13:25:35.400Z,1.50
2022-12-16T13:26:39.363Z,2.25
2022-12-16T13:27:43.296Z,1.00
2022-12-16T13:28:47.404Z,1.00
2022-12-16T13:29:51.717Z,1.25
2022-12-16T13:30:56.033Z,2.50
2022-12-16T13:32:00.266Z,2.25
2022-12-16T13:33:04.433Z,5.50
2022-12-16T13:34:08.631Z,4.50
2022-12-16T13:35:13.247Z,2.00
2022-12-16T13:36:17.564Z,1.50
2022-12-16T13:37:28.254Z,2.00
2022-12-16T13:38:27.197Z,2.25
2022-12-16T13:39:31.091Z,0.75
2022-12-16T13:40:35.464Z,2.00
2022-12-16T13:41:39.302Z,1.75
2022-12-16T13:42:43.302Z,2.00
2022-12-16T13:43:47.311Z,2.00
2022-12-16T13:44:51.112Z,0.50
2022-12-16T13:45:55.339Z,0.75
2022-12-16T13:46:59.713Z,1.50
2022-12-16T13:48:03.612Z,1.50
2022-12-16T13:49:07.718Z,2.50
2022-12-16T13:50:11.826Z,2.50
2022-12-16T13:51:19.158Z,2.00
2022-12-16T13:52:20.654Z,1.25
2022-12-16T13:53:24.753Z,1.50
2022-12-16T13:54:28.753Z,3.50
2022-12-16T13:55:32.753Z,3.75
2022-12-16T13:56:36.647Z,2.00
2022-12-16T13:57:40.545Z,3.25
2022-12-16T13:58:44.997Z,4.25
2022-12-16T13:59:49.378Z,2.50
2022-12-16T14:00:53.418Z,1.50
2022-12-16T14:01:57.849Z,2.75
2022-12-16T14:03:02.144Z,1.50
2022-12-16T14:04:06.291Z,2.00
2022-12-16T14:05:10.514Z,2.00
2022-12-16T14:06:14.705Z,3.00
2022-12-16T14:07:24.288Z,3.50
2022-12-16T14:08:24.347Z,4.25
2022-12-16T14:09:28.552Z,3.25
2022-12-16T14:10:32.550Z,3.00
2022-12-16T14:11:36.758Z,2.00
2022-12-16T14:12:41.661Z,2.00
2022-12-16T14:13:45.546Z,1.50
2022-12-16T14:14:49.724Z,4.00
2022-12-16T14:15:53.990Z,3.50
2022-12-16T14:16:58.363Z,3.50
2022-12-16T14:18:02.208Z,4.25
2022-12-16T14:19:06.414Z,2.25
2022-12-16T14:20:10.507Z,0.50
2022-12-16T14:21:15.133Z,1.75